sensor_id;sensor_type;location;lat;lon;timestamp;P1;durP1;ratioP1;P2;durP2;ratioP2
49296;SDS011;35163;48.878;18.040;2022-08-11T00:01:48;8.07;;;3.08;;
49296;SDS011;35163;48.878;18.040;2022-08-11T00:04:18;7.82;;;3.33;;
49296;SDS011;35163;48.878;18.040;2022-08-11T00:06:49;8.48;;;3.45;;
49296;SDS011;35163;48.878;18.040;2022-08-11T00:09:20;7.43;;;3.20;;
49296;SDS011;35163;48.878;18.040;2022-08-11T00:11:56;6.10;;;3.08;;
49296;SDS011;35163;48.878;18.040;2022-08-11T00:14:25;14.88;;;3.88;;
49296;SDS011;35163;48.878;18.040;2022-08-11T00:17:10;7.75;;;3.20;;
49296;SDS011;35163;48.878;18.040;2022-08-11T00:19:39;7.78;;;3.28;;
49296;SDS011;35163;48.878;18.040;2022-08-11T00:22:30;8.73;;;3.33;;
49296;SDS011;35163;48.878;18.040;2022-08-11T00:24:58;7.38;;;3.08;;
49296;SDS011;35163;48.878;18.040;2022-08-11T00:27:31;8.05;;;3.25;;
49296;SDS011;35163;48.878;18.040;2022-08-11T00:29:59;12.02;;;3.78;;
49296;SDS011;35163;48.878;18.040;2022-08-11T00:32:26;6.72;;;3.35;;
49296;SDS011;35163;48.878;18.040;2022-08-11T00:34:54;10.95;;;3.17;;
49296;SDS011;35163;48.878;18.040;2022-08-11T00:37:44;9.07;;;3.58;;
49296;SDS011;35163;48.878;18.040;2022-08-11T00:40:20;11.63;;;3.47;;
49296;SDS011;35163;48.878;18.040;2022-08-11T00:42:58;7.63;;;3.50;;
49296;SDS011;35163;48.878;18.040;2022-08-11T00:45:54;7.97;;;3.05;;
49296;SDS011;35163;48.878;18.040;2022-08-11T00:48:28;6.20;;;3.22;;
49296;SDS011;35163;48.878;18.040;2022-08-11T01:10:44;9.65;;;3.60;;
49296;SDS011;35163;48.878;18.040;2022-08-11T01:16:40;10.60;;;3.58;;
49296;SDS011;35163;48.878;18.040;2022-08-11T01:19:37;11.73;;;4.15;;
49296;SDS011;35163;48.878;18.040;2022-08-11T01:22:49;8.82;;;3.50;;
49296;SDS011;35163;48.878;18.040;2022-08-11T01:46:21;8.50;;;3.30;;
49296;SDS011;35163;48.878;18.040;2022-08-11T01:49:05;8.93;;;3.60;;
49296;SDS011;35163;48.878;18.040;2022-08-11T02:00:14;11.85;;;4.10;;
49296;SDS011;35163;48.878;18.040;2022-08-11T02:03:02;9.98;;;3.90;;
49296;SDS011;35163;48.878;18.040;2022-08-11T02:08:20;10.07;;;3.47;;
49296;SDS011;35163;48.878;18.040;2022-08-11T02:14:11;11.70;;;4.28;;
49296;SDS011;35163;48.878;18.040;2022-08-11T02:22:39;11.00;;;3.60;;
49296;SDS011;35163;48.878;18.040;2022-08-11T02:25:36;9.73;;;3.30;;
49296;SDS011;35163;48.878;18.040;2022-08-11T02:28:09;10.90;;;3.40;;
49296;SDS011;35163;48.878;18.040;2022-08-11T02:34:37;7.32;;;3.83;;
49296;SDS011;35163;48.878;18.040;2022-08-11T02:48:05;8.25;;;3.55;;
49296;SDS011;35163;48.878;18.040;2022-08-11T02:51:24;8.52;;;3.53;;
49296;SDS011;35163;48.878;18.040;2022-08-11T02:56:44;8.55;;;3.17;;
49296;SDS011;35163;48.878;18.040;2022-08-11T02:59:26;9.02;;;3.03;;
49296;SDS011;35163;48.878;18.040;2022-08-11T03:07:35;7.93;;;3.60;;
49296;SDS011;35163;48.878;18.040;2022-08-11T03:12:56;7.03;;;3.90;;
49296;SDS011;35163;48.878;18.040;2022-08-11T03:21:22;9.32;;;3.75;;
49296;SDS011;35163;48.878;18.040;2022-08-11T03:30:17;7.57;;;3.78;;
49296;SDS011;35163;48.878;18.040;2022-08-11T03:32:59;11.98;;;3.65;;
49296;SDS011;35163;48.878;18.040;2022-08-11T03:38:58;7.30;;;3.42;;
49296;SDS011;35163;48.878;18.040;2022-08-11T03:47:23;9.52;;;3.70;;
49296;SDS011;35163;48.878;18.040;2022-08-11T04:18:22;10.20;;;3.65;;
49296;SDS011;35163;48.878;18.040;2022-08-11T04:30:14;10.38;;;3.65;;
49296;SDS011;35163;48.878;18.040;2022-08-11T04:57:01;6.13;;;3.08;;
49296;SDS011;35163;48.878;18.040;2022-08-11T05:00:09;7.30;;;3.03;;
49296;SDS011;35163;48.878;18.040;2022-08-11T05:03:16;8.98;;;3.40;;
49296;SDS011;35163;48.878;18.040;2022-08-11T05:14:40;8.55;;;3.70;;
49296;SDS011;35163;48.878;18.040;2022-08-11T05:17:37;8.52;;;3.72;;
49296;SDS011;35163;48.878;18.040;2022-08-11T05:20:29;9.00;;;3.30;;
49296;SDS011;35163;48.878;18.040;2022-08-11T05:23:15;7.90;;;3.42;;
49296;SDS011;35163;48.878;18.040;2022-08-11T05:26:05;7.18;;;3.33;;
49296;SDS011;35163;48.878;18.040;2022-08-11T05:29:24;18.58;;;3.95;;
49296;SDS011;35163;48.878;18.040;2022-08-11T05:32:14;9.45;;;3.85;;
49296;SDS011;35163;48.878;18.040;2022-08-11T05:35:03;11.80;;;3.47;;
49296;SDS011;35163;48.878;18.040;2022-08-11T05:37:33;10.35;;;3.70;;
49296;SDS011;35163;48.878;18.040;2022-08-11T05:40:06;9.75;;;3.40;;
49296;SDS011;35163;48.878;18.040;2022-08-11T05:43:07;9.63;;;3.33;;
49296;SDS011;35163;48.878;18.040;2022-08-11T05:45:58;8.55;;;3.90;;
49296;SDS011;35163;48.878;18.040;2022-08-11T05:48:45;10.30;;;3.70;;
49296;SDS011;35163;48.878;18.040;2022-08-11T05:51:35;9.32;;;3.30;;
49296;SDS011;35163;48.878;18.040;2022-08-11T05:54:31;11.80;;;3.20;;
49296;SDS011;35163;48.878;18.040;2022-08-11T05:57:21;11.27;;;3.30;;
49296;SDS011;35163;48.878;18.040;2022-08-11T06:00:12;16.42;;;4.13;;
49296;SDS011;35163;48.878;18.040;2022-08-11T06:02:43;11.85;;;3.55;;
49296;SDS011;35163;48.878;18.040;2022-08-11T06:05:14;6.53;;;3.05;;
49296;SDS011;35163;48.878;18.040;2022-08-11T06:07:44;14.55;;;3.53;;
49296;SDS011;35163;48.878;18.040;2022-08-11T06:13:15;8.02;;;2.80;;
49296;SDS011;35163;48.878;18.040;2022-08-11T06:15:43;10.15;;;2.88;;
49296;SDS011;35163;48.878;18.040;2022-08-11T06:18:12;9.13;;;2.92;;
49296;SDS011;35163;48.878;18.040;2022-08-11T06:20:47;6.55;;;2.90;;
49296;SDS011;35163;48.878;18.040;2022-08-11T06:23:16;6.78;;;2.65;;
49296;SDS011;35163;48.878;18.040;2022-08-11T06:25:45;15.90;;;3.90;;
49296;SDS011;35163;48.878;18.040;2022-08-11T06:28:12;7.32;;;3.35;;
49296;SDS011;35163;48.878;18.040;2022-08-11T06:30:46;6.80;;;2.90;;
49296;SDS011;35163;48.878;18.040;2022-08-11T06:33:18;8.02;;;3.20;;
49296;SDS011;35163;48.878;18.040;2022-08-11T06:36:12;10.40;;;3.30;;
49296;SDS011;35163;48.878;18.040;2022-08-11T06:39:01;6.35;;;2.90;;
49296;SDS011;35163;48.878;18.040;2022-08-11T06:41:51;7.03;;;3.13;;
49296;SDS011;35163;48.878;18.040;2022-08-11T06:44:26;13.73;;;2.90;;
49296;SDS011;35163;48.878;18.040;2022-08-11T06:47:03;11.10;;;4.07;;
49296;SDS011;35163;48.878;18.040;2022-08-11T06:49:36;13.32;;;2.83;;
49296;SDS011;35163;48.878;18.040;2022-08-11T06:52:34;18.42;;;2.80;;
49296;SDS011;35163;48.878;18.040;2022-08-11T06:55:06;12.27;;;3.03;;
49296;SDS011;35163;48.878;18.040;2022-08-11T06:57:56;13.20;;;2.97;;
49296;SDS011;35163;48.878;18.040;2022-08-11T07:00:42;12.45;;;3.78;;
49296;SDS011;35163;48.878;18.040;2022-08-11T07:03:15;11.02;;;2.80;;
49296;SDS011;35163;48.878;18.040;2022-08-11T07:05:57;6.93;;;2.75;;
49296;SDS011;35163;48.878;18.040;2022-08-11T07:15:01;8.18;;;3.58;;
49296;SDS011;35163;48.878;18.040;2022-08-11T07:17:50;13.77;;;3.13;;
49296;SDS011;35163;48.878;18.040;2022-08-11T07:20:37;11.60;;;2.90;;
49296;SDS011;35163;48.878;18.040;2022-08-11T07:23:28;13.25;;;2.78;;
49296;SDS011;35163;48.878;18.040;2022-08-11T07:26:18;21.17;;;3.38;;
49296;SDS011;35163;48.878;18.040;2022-08-11T07:29:09;11.02;;;2.28;;
49296;SDS011;35163;48.878;18.040;2022-08-11T07:31:38;12.05;;;2.95;;
49296;SDS011;35163;48.878;18.040;2022-08-11T07:34:24;7.30;;;2.58;;
49296;SDS011;35163;48.878;18.040;2022-08-11T07:37:08;9.63;;;2.50;;
49296;SDS011;35163;48.878;18.040;2022-08-11T07:39:43;6.50;;;2.20;;
49296;SDS011;35163;48.878;18.040;2022-08-11T07:42:13;7.95;;;2.42;;
49296;SDS011;35163;48.878;18.040;2022-08-11T07:44:44;7.75;;;2.20;;
49296;SDS011;35163;48.878;18.040;2022-08-11T07:47:32;6.63;;;1.95;;
49296;SDS011;35163;48.878;18.040;2022-08-11T07:50:20;5.47;;;2.03;;
49296;SDS011;35163;48.878;18.040;2022-08-11T07:53:06;5.43;;;2.55;;
49296;SDS011;35163;48.878;18.040;2022-08-11T07:55:33;10.90;;;2.80;;
49296;SDS011;35163;48.878;18.040;2022-08-11T07:58:17;9.32;;;2.40;;
49296;SDS011;35163;48.878;18.040;2022-08-11T08:01:21;8.70;;;2.15;;
49296;SDS011;35163;48.878;18.040;2022-08-11T08:04:08;7.55;;;2.25;;
49296;SDS011;35163;48.878;18.040;2022-08-11T08:06:56;16.75;;;2.58;;
49296;SDS011;35163;48.878;18.040;2022-08-11T08:09:42;7.75;;;2.83;;
49296;SDS011;35163;48.878;18.040;2022-08-11T08:12:28;16.92;;;3.35;;
49296;SDS011;35163;48.878;18.040;2022-08-11T08:15:15;6.72;;;2.25;;
49296;SDS011;35163;48.878;18.040;2022-08-11T08:18:02;7.75;;;2.63;;
49296;SDS011;35163;48.878;18.040;2022-08-11T08:20:51;7.53;;;2.47;;
49296;SDS011;35163;48.878;18.040;2022-08-11T08:23:22;10.23;;;2.70;;
49296;SDS011;35163;48.878;18.040;2022-08-11T08:26:01;9.35;;;2.40;;
49296;SDS011;35163;48.878;18.040;2022-08-11T08:28:29;8.05;;;2.25;;
49296;SDS011;35163;48.878;18.040;2022-08-11T08:30:58;6.35;;;2.33;;
49296;SDS011;35163;48.878;18.040;2022-08-11T08:33:26;7.32;;;2.30;;
49296;SDS011;35163;48.878;18.040;2022-08-11T08:35:57;6.65;;;2.10;;
49296;SDS011;35163;48.878;18.040;2022-08-11T08:38:42;5.28;;;2.15;;
49296;SDS011;35163;48.878;18.040;2022-08-11T08:41:13;6.95;;;2.60;;
49296;SDS011;35163;48.878;18.040;2022-08-11T08:43:46;7.63;;;2.20;;
49296;SDS011;35163;48.878;18.040;2022-08-11T08:46:18;11.80;;;2.70;;
49296;SDS011;35163;48.878;18.040;2022-08-11T08:48:50;9.40;;;2.33;;
49296;SDS011;35163;48.878;18.040;2022-08-11T08:51:18;8.48;;;2.40;;
49296;SDS011;35163;48.878;18.040;2022-08-11T08:54:34;7.53;;;2.20;;
49296;SDS011;35163;48.878;18.040;2022-08-11T08:57:03;9.07;;;2.30;;
49296;SDS011;35163;48.878;18.040;2022-08-11T08:59:36;9.35;;;2.22;;
49296;SDS011;35163;48.878;18.040;2022-08-11T09:02:14;3.90;;;2.10;;
49296;SDS011;35163;48.878;18.040;2022-08-11T09:04:43;5.75;;;2.38;;
49296;SDS011;35163;48.878;18.040;2022-08-11T09:07:12;6.80;;;2.20;;
49296;SDS011;35163;48.878;18.040;2022-08-11T09:09:44;4.55;;;2.22;;
49296;SDS011;35163;48.878;18.040;2022-08-11T09:12:14;4.65;;;2.00;;
49296;SDS011;35163;48.878;18.040;2022-08-11T09:15:03;5.50;;;2.08;;
49296;SDS011;35163;48.878;18.040;2022-08-11T09:17:43;8.02;;;2.08;;
49296;SDS011;35163;48.878;18.040;2022-08-11T09:22:45;5.63;;;1.90;;
49296;SDS011;35163;48.878;18.040;2022-08-11T09:25:54;6.28;;;2.10;;
49296;SDS011;35163;48.878;18.040;2022-08-11T09:28:42;8.93;;;2.22;;
49296;SDS011;35163;48.878;18.040;2022-08-11T09:31:09;5.55;;;2.17;;
49296;SDS011;35163;48.878;18.040;2022-08-11T09:33:40;7.72;;;1.98;;
49296;SDS011;35163;48.878;18.040;2022-08-11T09:36:08;4.90;;;2.13;;
49296;SDS011;35163;48.878;18.040;2022-08-11T09:38:56;8.05;;;2.13;;
49296;SDS011;35163;48.878;18.040;2022-08-11T09:41:42;7.80;;;2.40;;
49296;SDS011;35163;48.878;18.040;2022-08-11T09:44:27;13.20;;;2.20;;
49296;SDS011;35163;48.878;18.040;2022-08-11T09:49:52;8.02;;;2.20;;
49296;SDS011;35163;48.878;18.040;2022-08-11T09:52:26;6.30;;;2.00;;
49296;SDS011;35163;48.878;18.040;2022-08-11T09:54:54;4.20;;;2.05;;
49296;SDS011;35163;48.878;18.040;2022-08-11T09:57:21;7.70;;;2.25;;
49296;SDS011;35163;48.878;18.040;2022-08-11T10:00:10;7.85;;;2.10;;
49296;SDS011;35163;48.878;18.040;2022-08-11T10:02:48;10.93;;;2.30;;
49296;SDS011;35163;48.878;18.040;2022-08-11T10:05:18;4.25;;;1.67;;
49296;SDS011;35163;48.878;18.040;2022-08-11T10:08:06;11.45;;;2.28;;
49296;SDS011;35163;48.878;18.040;2022-08-11T10:10:37;7.57;;;2.03;;
49296;SDS011;35163;48.878;18.040;2022-08-11T10:13:09;9.98;;;1.98;;
49296;SDS011;35163;48.878;18.040;2022-08-11T10:16:01;5.47;;;2.10;;
49296;SDS011;35163;48.878;18.040;2022-08-11T10:18:42;4.88;;;2.15;;
49296;SDS011;35163;48.878;18.040;2022-08-11T10:26:50;8.15;;;1.75;;
49296;SDS011;35163;48.878;18.040;2022-08-11T10:29:33;3.78;;;2.10;;
49296;SDS011;35163;48.878;18.040;2022-08-11T10:32:25;7.10;;;2.08;;
49296;SDS011;35163;48.878;18.040;2022-08-11T10:35:24;6.03;;;1.75;;
49296;SDS011;35163;48.878;18.040;2022-08-11T10:37:53;7.57;;;2.08;;
49296;SDS011;35163;48.878;18.040;2022-08-11T10:40:35;4.90;;;1.50;;
49296;SDS011;35163;48.878;18.040;2022-08-11T10:43:04;5.05;;;1.90;;
49296;SDS011;35163;48.878;18.040;2022-08-11T10:45:36;4.78;;;1.80;;
49296;SDS011;35163;48.878;18.040;2022-08-11T10:48:23;4.40;;;1.52;;
49296;SDS011;35163;48.878;18.040;2022-08-11T10:50:51;5.07;;;1.55;;
49296;SDS011;35163;48.878;18.040;2022-08-11T10:53:47;3.53;;;1.70;;
49296;SDS011;35163;48.878;18.040;2022-08-11T10:56:38;7.75;;;3.22;;
49296;SDS011;35163;48.878;18.040;2022-08-11T10:59:25;9.40;;;2.20;;
49296;SDS011;35163;48.878;18.040;2022-08-11T11:01:55;3.28;;;1.60;;
49296;SDS011;35163;48.878;18.040;2022-08-11T11:07:40;4.03;;;1.80;;
49296;SDS011;35163;48.878;18.040;2022-08-11T11:10:13;5.43;;;1.63;;
49296;SDS011;35163;48.878;18.040;2022-08-11T11:12:43;11.88;;;1.73;;
49296;SDS011;35163;48.878;18.040;2022-08-11T11:15:30;9.15;;;2.00;;
49296;SDS011;35163;48.878;18.040;2022-08-11T11:18:33;6.32;;;1.63;;
49296;SDS011;35163;48.878;18.040;2022-08-11T11:21:04;4.78;;;1.88;;
49296;SDS011;35163;48.878;18.040;2022-08-11T11:23:35;6.45;;;1.58;;
49296;SDS011;35163;48.878;18.040;2022-08-11T11:36:55;5.20;;;1.60;;
49296;SDS011;35163;48.878;18.040;2022-08-11T11:39:30;6.00;;;1.77;;
49296;SDS011;35163;48.878;18.040;2022-08-11T11:42:02;8.93;;;4.43;;
49296;SDS011;35163;48.878;18.040;2022-08-11T11:44:31;2.65;;;1.40;;
49296;SDS011;35163;48.878;18.040;2022-08-11T11:46:59;8.18;;;1.70;;
49296;SDS011;35163;48.878;18.040;2022-08-11T11:49:27;8.20;;;1.30;;
49296;SDS011;35163;48.878;18.040;2022-08-11T11:51:56;5.53;;;1.33;;
49296;SDS011;35163;48.878;18.040;2022-08-11T11:54:24;6.07;;;1.40;;
49296;SDS011;35163;48.878;18.040;2022-08-11T11:56:54;5.88;;;1.20;;
49296;SDS011;35163;48.878;18.040;2022-08-11T11:59:22;3.78;;;1.40;;
49296;SDS011;35163;48.878;18.040;2022-08-11T12:02:10;5.38;;;1.50;;
49296;SDS011;35163;48.878;18.040;2022-08-11T12:04:40;4.60;;;1.33;;
49296;SDS011;35163;48.878;18.040;2022-08-11T12:07:09;5.53;;;1.30;;
49296;SDS011;35163;48.878;18.040;2022-08-11T12:09:55;3.85;;;1.42;;
49296;SDS011;35163;48.878;18.040;2022-08-11T12:12:23;6.25;;;1.30;;
49296;SDS011;35163;48.878;18.040;2022-08-11T12:15:10;6.85;;;1.67;;
49296;SDS011;35163;48.878;18.040;2022-08-11T12:17:37;6.95;;;1.50;;
49296;SDS011;35163;48.878;18.040;2022-08-11T12:20:05;7.60;;;1.65;;
49296;SDS011;35163;48.878;18.040;2022-08-11T12:22:53;5.28;;;1.80;;
49296;SDS011;35163;48.878;18.040;2022-08-11T12:25:40;5.97;;;1.75;;
49296;SDS011;35163;48.878;18.040;2022-08-11T12:28:48;3.03;;;1.67;;
49296;SDS011;35163;48.878;18.040;2022-08-11T12:31:15;3.13;;;1.23;;
49296;SDS011;35163;48.878;18.040;2022-08-11T12:33:42;4.32;;;1.45;;
49296;SDS011;35163;48.878;18.040;2022-08-11T12:36:09;5.03;;;1.52;;
49296;SDS011;35163;48.878;18.040;2022-08-11T12:38:43;4.72;;;2.00;;
49296;SDS011;35163;48.878;18.040;2022-08-11T12:41:16;11.43;;;1.63;;
49296;SDS011;35163;48.878;18.040;2022-08-11T12:44:04;6.82;;;1.42;;
49296;SDS011;35163;48.878;18.040;2022-08-11T12:46:52;6.43;;;1.90;;
49296;SDS011;35163;48.878;18.040;2022-08-11T12:49:21;6.35;;;1.27;;
49296;SDS011;35163;48.878;18.040;2022-08-11T12:52:13;4.00;;;1.35;;
49296;SDS011;35163;48.878;18.040;2022-08-11T12:54:57;4.38;;;1.13;;
49296;SDS011;35163;48.878;18.040;2022-08-11T12:57:32;3.65;;;1.55;;
49296;SDS011;35163;48.878;18.040;2022-08-11T13:00:23;2.25;;;1.02;;
49296;SDS011;35163;48.878;18.040;2022-08-11T13:03:11;1.80;;;1.13;;
49296;SDS011;35163;48.878;18.040;2022-08-11T13:06:01;5.47;;;1.40;;
49296;SDS011;35163;48.878;18.040;2022-08-11T13:08:30;5.35;;;1.45;;
49296;SDS011;35163;48.878;18.040;2022-08-11T13:11:00;2.28;;;1.30;;
49296;SDS011;35163;48.878;18.040;2022-08-11T13:13:47;5.85;;;1.35;;
49296;SDS011;35163;48.878;18.040;2022-08-11T13:16:30;3.85;;;1.58;;
49296;SDS011;35163;48.878;18.040;2022-08-11T13:19:21;7.43;;;1.60;;
49296;SDS011;35163;48.878;18.040;2022-08-11T13:21:49;5.88;;;1.60;;
49296;SDS011;35163;48.878;18.040;2022-08-11T13:24:17;2.63;;;1.20;;
49296;SDS011;35163;48.878;18.040;2022-08-11T13:26:46;5.72;;;1.35;;
49296;SDS011;35163;48.878;18.040;2022-08-11T13:29:16;12.75;;;6.32;;
49296;SDS011;35163;48.878;18.040;2022-08-11T13:31:45;5.18;;;2.40;;
49296;SDS011;35163;48.878;18.040;2022-08-11T13:34:13;2.60;;;1.60;;
49296;SDS011;35163;48.878;18.040;2022-08-11T13:36:41;4.28;;;1.30;;
49296;SDS011;35163;48.878;18.040;2022-08-11T13:39:09;2.47;;;1.23;;
49296;SDS011;35163;48.878;18.040;2022-08-11T13:41:36;3.75;;;1.38;;
49296;SDS011;35163;48.878;18.040;2022-08-11T13:44:08;2.85;;;1.30;;
49296;SDS011;35163;48.878;18.040;2022-08-11T13:46:41;1.67;;;1.10;;
49296;SDS011;35163;48.878;18.040;2022-08-11T13:49:09;5.40;;;1.35;;
49296;SDS011;35163;48.878;18.040;2022-08-11T13:51:37;4.80;;;1.50;;
49296;SDS011;35163;48.878;18.040;2022-08-11T13:54:06;3.78;;;1.30;;
49296;SDS011;35163;48.878;18.040;2022-08-11T13:56:34;3.28;;;1.23;;
49296;SDS011;35163;48.878;18.040;2022-08-11T13:59:06;2.90;;;1.30;;
49296;SDS011;35163;48.878;18.040;2022-08-11T14:01:38;2.90;;;1.15;;
49296;SDS011;35163;48.878;18.040;2022-08-11T14:04:29;2.70;;;1.33;;
49296;SDS011;35163;48.878;18.040;2022-08-11T14:06:59;2.47;;;1.38;;
49296;SDS011;35163;48.878;18.040;2022-08-11T14:09:34;3.00;;;1.52;;
49296;SDS011;35163;48.878;18.040;2022-08-11T14:12:06;2.53;;;1.45;;
49296;SDS011;35163;48.878;18.040;2022-08-11T14:15:06;3.40;;;1.20;;
49296;SDS011;35163;48.878;18.040;2022-08-11T14:17:35;5.25;;;2.70;;
49296;SDS011;35163;48.878;18.040;2022-08-11T14:20:15;6.25;;;2.17;;
49296;SDS011;35163;48.878;18.040;2022-08-11T14:23:04;4.57;;;1.88;;
49296;SDS011;35163;48.878;18.040;2022-08-11T14:25:31;5.60;;;1.90;;
49296;SDS011;35163;48.878;18.040;2022-08-11T14:28:18;8.75;;;2.20;;
49296;SDS011;35163;48.878;18.040;2022-08-11T14:30:59;11.27;;;1.83;;
49296;SDS011;35163;48.878;18.040;2022-08-11T14:33:29;5.25;;;2.25;;
49296;SDS011;35163;48.878;18.040;2022-08-11T14:36:18;2.22;;;1.17;;
49296;SDS011;35163;48.878;18.040;2022-08-11T14:38:48;2.50;;;1.00;;
49296;SDS011;35163;48.878;18.040;2022-08-11T14:41:17;4.90;;;1.83;;
49296;SDS011;35163;48.878;18.040;2022-08-11T14:44:23;4.60;;;2.08;;
49296;SDS011;35163;48.878;18.040;2022-08-11T14:47:10;7.68;;;3.38;;
49296;SDS011;35163;48.878;18.040;2022-08-11T14:49:50;5.95;;;1.42;;
49296;SDS011;35163;48.878;18.040;2022-08-11T14:52:35;6.25;;;1.52;;
49296;SDS011;35163;48.878;18.040;2022-08-11T14:55:04;3.00;;;1.50;;
49296;SDS011;35163;48.878;18.040;2022-08-11T14:57:52;3.38;;;1.23;;
49296;SDS011;35163;48.878;18.040;2022-08-11T15:00:30;4.40;;;1.25;;
49296;SDS011;35163;48.878;18.040;2022-08-11T15:02:59;5.40;;;1.88;;
49296;SDS011;35163;48.878;18.040;2022-08-11T15:05:47;6.68;;;2.53;;
49296;SDS011;35163;48.878;18.040;2022-08-11T15:08:23;5.75;;;1.40;;
49296;SDS011;35163;48.878;18.040;2022-08-11T15:11:13;5.50;;;1.80;;
49296;SDS011;35163;48.878;18.040;2022-08-11T15:14:00;5.40;;;1.50;;
49296;SDS011;35163;48.878;18.040;2022-08-11T15:16:28;2.10;;;1.30;;
49296;SDS011;35163;48.878;18.040;2022-08-11T15:19:15;2.85;;;1.10;;
49296;SDS011;35163;48.878;18.040;2022-08-11T15:21:46;2.75;;;1.13;;
49296;SDS011;35163;48.878;18.040;2022-08-11T15:24:33;5.75;;;1.77;;
49296;SDS011;35163;48.878;18.040;2022-08-11T15:27:07;7.25;;;1.58;;
49296;SDS011;35163;48.878;18.040;2022-08-11T15:29:56;8.50;;;1.65;;
49296;SDS011;35163;48.878;18.040;2022-08-11T15:32:57;2.20;;;1.30;;
49296;SDS011;35163;48.878;18.040;2022-08-11T15:35:45;10.60;;;1.60;;
49296;SDS011;35163;48.878;18.040;2022-08-11T15:38:31;4.43;;;1.80;;
49296;SDS011;35163;48.878;18.040;2022-08-11T15:41:01;8.13;;;1.67;;
49296;SDS011;35163;48.878;18.040;2022-08-11T15:43:50;5.32;;;1.73;;
49296;SDS011;35163;48.878;18.040;2022-08-11T15:46:43;3.33;;;1.63;;
49296;SDS011;35163;48.878;18.040;2022-08-11T15:51:54;9.05;;;1.50;;
49296;SDS011;35163;48.878;18.040;2022-08-11T15:54:52;5.80;;;2.72;;
49296;SDS011;35163;48.878;18.040;2022-08-11T15:57:19;4.57;;;1.80;;
49296;SDS011;35163;48.878;18.040;2022-08-11T16:00:06;4.50;;;1.88;;
49296;SDS011;35163;48.878;18.040;2022-08-11T16:02:52;4.53;;;1.60;;
49296;SDS011;35163;48.878;18.040;2022-08-11T16:05:42;4.13;;;1.67;;
49296;SDS011;35163;48.878;18.040;2022-08-11T16:08:12;8.57;;;1.65;;
49296;SDS011;35163;48.878;18.040;2022-08-11T16:10:49;7.78;;;2.03;;
49296;SDS011;35163;48.878;18.040;2022-08-11T16:13:22;3.00;;;1.25;;
49296;SDS011;35163;48.878;18.040;2022-08-11T16:15:53;4.88;;;1.70;;
49296;SDS011;35163;48.878;18.040;2022-08-11T16:18:42;8.20;;;3.60;;
49296;SDS011;35163;48.878;18.040;2022-08-11T16:21:33;5.68;;;1.63;;
49296;SDS011;35163;48.878;18.040;2022-08-11T16:24:03;7.43;;;1.55;;
49296;SDS011;35163;48.878;18.040;2022-08-11T16:26:32;8.00;;;2.85;;
49296;SDS011;35163;48.878;18.040;2022-08-11T16:29:24;5.57;;;1.40;;
49296;SDS011;35163;48.878;18.040;2022-08-11T16:31:56;3.08;;;1.50;;
49296;SDS011;35163;48.878;18.040;2022-08-11T16:34:49;14.35;;;1.70;;
49296;SDS011;35163;48.878;18.040;2022-08-11T16:37:38;9.75;;;1.70;;
49296;SDS011;35163;48.878;18.040;2022-08-11T16:40:25;6.80;;;1.98;;
49296;SDS011;35163;48.878;18.040;2022-08-11T16:42:54;8.02;;;1.42;;
49296;SDS011;35163;48.878;18.040;2022-08-11T16:45:41;4.95;;;1.60;;
49296;SDS011;35163;48.878;18.040;2022-08-11T16:48:30;7.32;;;1.90;;
49296;SDS011;35163;48.878;18.040;2022-08-11T16:51:04;5.93;;;1.80;;
49296;SDS011;35163;48.878;18.040;2022-08-11T16:53:33;6.10;;;1.92;;
49296;SDS011;35163;48.878;18.040;2022-08-11T16:56:22;8.63;;;1.58;;
49296;SDS011;35163;48.878;18.040;2022-08-11T16:58:53;6.63;;;1.38;;
49296;SDS011;35163;48.878;18.040;2022-08-11T17:07:25;5.45;;;1.60;;
49296;SDS011;35163;48.878;18.040;2022-08-11T17:13:28;4.65;;;1.25;;
49296;SDS011;35163;48.878;18.040;2022-08-11T17:16:01;4.05;;;1.60;;
49296;SDS011;35163;48.878;18.040;2022-08-11T17:18:34;7.85;;;2.45;;
49296;SDS011;35163;48.878;18.040;2022-08-11T17:23:52;4.30;;;1.65;;
49296;SDS011;35163;48.878;18.040;2022-08-11T17:26:22;6.13;;;1.35;;
49296;SDS011;35163;48.878;18.040;2022-08-11T17:29:36;6.78;;;3.03;;
49296;SDS011;35163;48.878;18.040;2022-08-11T17:32:42;5.15;;;1.90;;
49296;SDS011;35163;48.878;18.040;2022-08-11T17:35:34;7.50;;;1.50;;
49296;SDS011;35163;48.878;18.040;2022-08-11T17:38:06;2.67;;;1.35;;
49296;SDS011;35163;48.878;18.040;2022-08-11T17:40:36;4.93;;;1.38;;
49296;SDS011;35163;48.878;18.040;2022-08-11T17:43:25;3.90;;;1.88;;
49296;SDS011;35163;48.878;18.040;2022-08-11T17:46:13;3.33;;;1.48;;
49296;SDS011;35163;48.878;18.040;2022-08-11T17:49:00;3.38;;;1.40;;
49296;SDS011;35163;48.878;18.040;2022-08-11T17:51:28;5.82;;;2.08;;
49296;SDS011;35163;48.878;18.040;2022-08-11T17:54:14;2.85;;;1.50;;
49296;SDS011;35163;48.878;18.040;2022-08-11T17:57:01;5.63;;;1.70;;
49296;SDS011;35163;48.878;18.040;2022-08-11T17:59:48;7.68;;;2.65;;
49296;SDS011;35163;48.878;18.040;2022-08-11T18:02:29;2.05;;;1.20;;
49296;SDS011;35163;48.878;18.040;2022-08-11T18:05:19;7.38;;;1.95;;
49296;SDS011;35163;48.878;18.040;2022-08-11T18:07:52;6.20;;;1.60;;
49296;SDS011;35163;48.878;18.040;2022-08-11T18:10:40;6.95;;;2.00;;
49296;SDS011;35163;48.878;18.040;2022-08-11T18:13:27;5.35;;;2.05;;
49296;SDS011;35163;48.878;18.040;2022-08-11T18:16:15;4.03;;;1.50;;
49296;SDS011;35163;48.878;18.040;2022-08-11T18:19:02;6.28;;;1.73;;
49296;SDS011;35163;48.878;18.040;2022-08-11T18:21:48;4.75;;;1.60;;
49296;SDS011;35163;48.878;18.040;2022-08-11T18:24:45;4.57;;;1.73;;
49296;SDS011;35163;48.878;18.040;2022-08-11T18:27:34;6.97;;;1.63;;
49296;SDS011;35163;48.878;18.040;2022-08-11T18:30:22;2.72;;;1.38;;
49296;SDS011;35163;48.878;18.040;2022-08-11T18:33:09;4.80;;;2.00;;
49296;SDS011;35163;48.878;18.040;2022-08-11T18:36:21;2.80;;;1.50;;
49296;SDS011;35163;48.878;18.040;2022-08-11T18:39:11;5.33;;;1.70;;
49296;SDS011;35163;48.878;18.040;2022-08-11T18:41:59;4.80;;;1.60;;
49296;SDS011;35163;48.878;18.040;2022-08-11T18:44:56;3.35;;;1.58;;
49296;SDS011;35163;48.878;18.040;2022-08-11T18:47:45;7.85;;;1.60;;
49296;SDS011;35163;48.878;18.040;2022-08-11T18:50:36;7.57;;;2.00;;
49296;SDS011;35163;48.878;18.040;2022-08-11T18:53:45;7.90;;;1.73;;
49296;SDS011;35163;48.878;18.040;2022-08-11T18:56:32;3.65;;;1.60;;
49296;SDS011;35163;48.878;18.040;2022-08-11T18:59:20;3.50;;;1.50;;
49296;SDS011;35163;48.878;18.040;2022-08-11T19:02:10;3.72;;;1.95;;
49296;SDS011;35163;48.878;18.040;2022-08-11T19:05:13;9.93;;;1.85;;
49296;SDS011;35163;48.878;18.040;2022-08-11T19:08:20;9.35;;;1.80;;
49296;SDS011;35163;48.878;18.040;2022-08-11T19:11:07;3.70;;;1.70;;
49296;SDS011;35163;48.878;18.040;2022-08-11T19:13:55;7.22;;;2.25;;
49296;SDS011;35163;48.878;18.040;2022-08-11T19:16:41;3.42;;;1.52;;
49296;SDS011;35163;48.878;18.040;2022-08-11T19:19:28;3.22;;;1.50;;
49296;SDS011;35163;48.878;18.040;2022-08-11T19:22:17;4.00;;;1.85;;
49296;SDS011;35163;48.878;18.040;2022-08-11T19:25:04;5.68;;;1.73;;
49296;SDS011;35163;48.878;18.040;2022-08-11T19:27:52;6.40;;;1.85;;
49296;SDS011;35163;48.878;18.040;2022-08-11T19:30:38;4.70;;;1.80;;
49296;SDS011;35163;48.878;18.040;2022-08-11T19:33:24;5.40;;;1.80;;
49296;SDS011;35163;48.878;18.040;2022-08-11T19:36:30;3.13;;;1.58;;
49296;SDS011;35163;48.878;18.040;2022-08-11T19:39:17;3.83;;;1.90;;
49296;SDS011;35163;48.878;18.040;2022-08-11T19:42:07;6.63;;;2.00;;
49296;SDS011;35163;48.878;18.040;2022-08-11T19:44:54;4.32;;;1.73;;